Time;durP1;ratioP1;P1;durP2;ratioP2;P2;SDS_P1;SDS_P2;PMS_P1;PMS_P2;Temp;Humidity;BMP_temperature;BMP_pressure;BME280_temperature;BME280_humidity;BME280_pressure;Samples;Min_cycle;Max_cycle;Signal;HPM_P1;HPM_P2
2024/01/02 00:02:21;;;;;;;11.83;11.43;;;9.70;99.90;;;;;;5121684;27;20214;-64
2024/01/02 00:04:48;;;;;;;11.53;11.13;;;9.70;99.90;;;;;;5126922;27;20198;-65
2024/01/02 00:07:16;;;;;;;11.60;11.20;;;9.70;99.90;;;;;;5118232;27;20255;-64
2024/01/02 00:09:43;;;;;;;11.80;11.40;;;9.70;99.90;;;;;;5123797;27;20202;-63
2024/01/02 00:12:10;;;;;;;11.30;10.90;;;9.70;99.90;;;;;;5117806;27;20868;-64
2024/01/02 00:14:37;;;;;;;11.37;10.97;;;9.70;99.90;;;;;;5121546;27;20221;-65
2024/01/02 00:17:04;;;;;;;11.60;11.20;;;9.70;99.90;;;;;;5118273;27;20267;-63
2024/01/02 00:19:31;;;;;;;11.73;11.33;;;9.60;99.90;;;;;;5116716;27;20193;-62
2024/01/02 00:21:57;;;;;;;10.90;10.50;;;9.60;99.90;;;;;;5120946;27;20221;-62
2024/01/02 00:24:25;;;;;;;12.53;12.10;;;9.70;99.90;;;;;;5126994;27;20572;-64
2024/01/02 00:26:52;;;;;;;11.50;11.00;;;9.70;99.90;;;;;;5122497;27;20198;-63
2024/01/02 00:29:19;;;;;;;11.40;11.00;;;9.60;99.90;;;;;;5124468;27;20199;-60
2024/01/02 00:31:46;;;;;;;11.13;10.73;;;9.60;99.90;;;;;;5123542;27;20233;-63
2024/01/02 00:34:12;;;;;;;12.47;11.97;;;9.60;99.90;;;;;;5117611;27;20198;-63
2024/01/02 00:36:39;;;;;;;11.20;10.80;;;9.70;99.90;;;;;;5123558;27;20205;-62
2024/01/02 00:39:06;;;;;;;11.10;10.70;;;9.60;99.90;;;;;;5133069;27;20194;-62
2024/01/02 00:41:34;;;;;;;11.40;11.00;;;9.60;99.90;;;;;;5125877;27;20252;-65
2024/01/02 00:44:01;;;;;;;11.20;10.80;;;9.60;99.90;;;;;;5125353;27;20201;-63
2024/01/02 00:46:27;;;;;;;11.67;11.27;;;9.60;99.90;;;;;;5133967;27;20622;-63
2024/01/02 00:48:54;;;;;;;11.83;11.43;;;9.60;99.90;;;;;;5122735;27;20229;-62
2024/01/02 00:51:21;;;;;;;11.70;11.30;;;9.60;99.90;;;;;;5123657;27;20221;-63
2024/01/02 00:53:47;;;;;;;12.13;11.73;;;9.60;99.90;;;;;;5116168;27;20205;-62
2024/01/02 00:56:15;;;;;;;11.40;11.00;;;9.70;99.90;;;;;;5116613;27;20219;-63
2024/01/02 00:58:43;;;;;;;11.63;11.23;;;9.70;99.90;;;;;;5117622;27;20587;-63
2024/01/02 01:01:10;;;;;;;10.73;10.33;;;9.70;99.90;;;;;;5119049;27;20229;-62
2024/01/02 01:03:36;;;;;;;11.10;10.70;;;9.70;99.90;;;;;;5117815;27;20199;-62
2024/01/02 01:06:04;;;;;;;11.27;10.87;;;9.70;99.90;;;;;;5122102;27;20213;-65
2024/01/02 01:08:30;;;;;;;11.27;10.87;;;9.70;99.90;;;;;;5117519;27;20197;-63
2024/01/02 01:10:57;;;;;;;11.43;11.03;;;9.70;99.90;;;;;;5113363;27;20229;-63
2024/01/02 01:13:24;;;;;;;11.47;11.07;;;9.70;99.90;;;;;;5121777;27;20201;-63
2024/01/02 01:15:52;;;;;;;10.63;10.27;;;9.70;99.90;;;;;;5122665;27;20221;-63
2024/01/02 01:18:18;;;;;;;11.40;11.00;;;9.80;99.90;;;;;;5123811;27;20212;-63
2024/01/02 01:20:45;;;;;;;11.60;11.20;;;9.80;99.90;;;;;;5117379;27;20225;-62
2024/01/02 01:23:12;;;;;;;11.53;11.13;;;9.80;99.90;;;;;;5120969;27;20217;-63
2024/01/02 01:25:39;;;;;;;11.63;11.23;;;9.80;99.90;;;;;;5123280;27;20652;-65
2024/01/02 01:28:06;;;;;;;11.30;10.90;;;9.80;99.90;;;;;;5113530;27;20202;-64
2024/01/02 01:30:32;;;;;;;11.43;11.03;;;9.90;99.90;;;;;;5121152;27;20208;-62
2024/01/02 01:33:01;;;;;;;11.30;10.90;;;9.90;99.90;;;;;;5113015;27;20202;-64
2024/01/02 01:35:27;;;;;;;11.40;11.00;;;10.00;99.90;;;;;;5125888;27;20258;-63
2024/01/02 01:37:54;;;;;;;11.13;10.73;;;9.90;99.90;;;;;;5117535;27;20705;-63
2024/01/02 01:40:21;;;;;;;10.90;10.50;;;10.00;99.90;;;;;;5121921;27;20224;-63
2024/01/02 01:42:48;;;;;;;11.07;10.68;;;10.00;99.90;;;;;;5124514;27;20240;-64
2024/01/02 01:45:15;;;;;;;11.30;10.90;;;10.00;99.90;;;;;;5113101;27;20202;-63
2024/01/02 01:47:42;;;;;;;11.10;10.70;;;10.10;99.90;;;;;;5124787;27;20208;-63
2024/01/02 01:50:10;;;;;;;11.27;10.87;;;10.10;99.90;;;;;;5120108;27;20593;-62
2024/01/02 01:52:38;;;;;;;10.83;10.43;;;10.10;99.90;;;;;;5127481;27;20217;-65
2024/01/02 01:55:06;;;;;;;11.30;10.90;;;10.20;99.90;;;;;;5123812;27;20614;-65
2024/01/02 01:57:33;;;;;;;11.57;11.17;;;10.20;99.90;;;;;;5121535;27;20208;-63
2024/01/02 02:00:00;;;;;;;10.90;10.50;;;10.30;99.90;;;;;;5127474;28;20223;-63
2024/01/02 02:02:27;;;;;;;10.90;10.50;;;10.30;99.90;;;;;;5128853;27;20637;-62
2024/01/02 02:04:54;;;;;;;11.70;11.30;;;10.30;99.90;;;;;;5131646;28;20194;-63
2024/01/02 02:07:22;;;;;;;11.57;11.17;;;10.30;99.90;;;;;;5126405;27;20202;-64
2024/01/02 02:09:49;;;;;;;11.03;10.63;;;10.40;99.90;;;;;;5118849;27;20217;-64
2024/01/02 02:12:16;;;;;;;13.77;13.27;;;10.40;99.90;;;;;;5119012;27;20222;-62
2024/01/02 02:14:42;;;;;;;11.37;10.97;;;10.40;99.90;;;;;;5109916;28;20657;-65
2024/01/02 02:17:09;;;;;;;10.80;10.40;;;10.30;99.90;;;;;;5109239;28;20669;-64
2024/01/02 02:19:36;;;;;;;11.00;10.60;;;10.40;99.90;;;;;;5108026;28;20571;-61
2024/01/02 02:22:05;;;;;;;11.10;10.70;;;10.40;99.90;;;;;;5106220;28;20230;-65
2024/01/02 02:24:33;;;;;;;10.87;10.47;;;10.40;99.90;;;;;;5106896;28;20292;-64
2024/01/02 02:27:01;;;;;;;11.00;10.60;;;10.40;99.90;;;;;;5107707;28;20762;-63
2024/01/02 02:29:28;;;;;;;10.70;10.40;;;10.40;99.90;;;;;;5107885;28;20202;-63
2024/01/02 02:31:55;;;;;;;11.30;10.90;;;10.40;99.90;;;;;;5111854;28;20228;-63
2024/01/02 02:34:21;;;;;;;11.80;11.40;;;10.40;99.90;;;;;;5112599;28;20198;-63
2024/01/02 02:36:48;;;;;;;11.10;10.70;;;10.40;99.90;;;;;;5116594;28;20221;-65
2024/01/02 02:39:15;;;;;;;10.73;10.37;;;10.50;99.90;;;;;;5110064;28;20218;-63
2024/01/02 02:41:43;;;;;;;10.80;10.40;;;10.40;99.90;;;;;;5118608;28;20222;-61
2024/01/02 02:44:10;;;;;;;11.80;11.40;;;10.40;99.90;;;;;;5114003;28;20206;-63
2024/01/02 02:46:37;;;;;;;11.33;10.93;;;10.40;99.90;;;;;;5112350;28;20637;-64
2024/01/02 02:49:03;;;;;;;10.87;10.47;;;10.40;99.90;;;;;;5110566;28;20206;-63
2024/01/02 02:51:30;;;;;;;11.00;10.60;;;10.40;99.90;;;;;;5110357;28;20260;-62
2024/01/02 02:53:57;;;;;;;11.07;10.67;;;10.40;99.90;;;;;;5105653;28;20206;-64
2024/01/02 02:56:24;;;;;;;11.07;10.67;;;10.40;99.90;;;;;;5108929;28;20222;-62
2024/01/02 02:58:52;;;;;;;10.90;10.50;;;10.50;99.90;;;;;;5108481;28;20194;-61
2024/01/02 03:01:22;;;;;;;10.55;10.25;;;10.50;99.90;;;;;;5109179;28;20232;-63
2024/01/02 03:03:49;;;;;;;10.87;10.47;;;10.50;99.90;;;;;;5105866;28;20252;-63
2024/01/02 03:06:16;;;;;;;11.00;10.60;;;10.40;99.90;;;;;;5108641;28;20262;-61
2024/01/02 03:08:43;;;;;;;11.40;11.00;;;10.40;99.90;;;;;;5112313;28;20206;-63
2024/01/02 03:11:09;;;;;;;11.00;10.60;;;10.40;99.90;;;;;;5109615;28;20225;-64
2024/01/02 03:13:36;;;;;;;11.07;10.67;;;10.40;99.90;;;;;;5108873;28;20205;-60
2024/01/02 03:16:05;;;;;;;11.10;10.70;;;10.40;99.90;;;;;;5112091;28;20245;-62
2024/01/02 03:18:32;;;;;;;11.33;10.93;;;10.30;99.90;;;;;;5108413;28;20684;-65
2024/01/02 03:20:58;;;;;;;11.30;10.90;;;10.30;99.90;;;;;;5109259;28;20237;-62
2024/01/02 03:23:25;;;;;;;10.90;10.50;;;10.30;99.90;;;;;;5112025;28;20198;-63
2024/01/02 03:25:53;;;;;;;11.03;10.63;;;10.20;99.90;;;;;;5112153;28;20206;-63
2024/01/02 03:28:20;;;;;;;10.73;10.33;;;10.30;99.90;;;;;;5111658;28;20198;-64
2024/01/02 03:30:46;;;;;;;11.20;10.80;;;10.30;99.90;;;;;;5112576;28;20248;-62
2024/01/02 03:33:14;;;;;;;11.00;10.60;;;10.20;99.90;;;;;;5112786;28;20202;-63
2024/01/02 03:35:41;;;;;;;11.77;11.37;;;10.20;99.90;;;;;;5107525;28;20222;-64
2024/01/02 03:38:08;;;;;;;11.97;11.57;;;10.20;99.90;;;;;;5111926;28;20205;-62
2024/01/02 03:40:34;;;;;;;11.63;11.23;;;10.10;99.90;;;;;;5121019;28;20202;-63
2024/01/02 03:43:01;;;;;;;10.87;10.47;;;10.10;99.90;;;;;;5121428;28;20194;-63
2024/01/02 03:45:28;;;;;;;11.90;11.50;;;10.10;99.90;;;;;;5114143;28;20209;-64
2024/01/02 03:47:54;;;;;;;11.20;10.80;;;10.10;99.90;;;;;;5109958;28;20216;-63
2024/01/02 03:50:23;;;;;;;11.70;11.30;;;10.00;99.90;;;;;;5104952;27;20198;-64
2024/01/02 03:52:49;;;;;;;11.33;10.93;;;10.00;99.90;;;;;;5111278;28;20251;-62
2024/01/02 03:55:16;;;;;;;11.45;11.05;;;10.00;99.90;;;;;;5105020;28;20205;-63
2024/01/02 03:57:44;;;;;;;11.53;11.13;;;10.00;99.90;;;;;;5109290;28;20198;-64
2024/01/02 04:00:11;;;;;;;11.60;11.20;;;10.00;99.90;;;;;;5110923;28;20201;-64
2024/01/02 04:02:39;;;;;;;11.43;11.03;;;9.90;99.90;;;;;;5107460;28;20238;-63
2024/01/02 04:05:07;;;;;;;11.43;11.03;;;10.00;99.90;;;;;;5110209;27;20198;-62
2024/01/02 04:07:35;;;;;;;11.63;11.23;;;9.90;99.90;;;;;;5111624;28;20293;-63
2024/01/02 04:10:01;;;;;;;11.20;10.80;;;9.90;99.90;;;;;;5106337;28;20210;-63
2024/01/02 04:12:28;;;;;;;11.43;11.03;;;9.90;99.90;;;;;;5111214;28;20689;-64
2024/01/02 04:14:55;;;;;;;11.50;11.10;;;9.90;99.90;;;;;;5110243;28;20202;-65
2024/01/02 04:17:21;;;;;;;11.10;10.70;;;9.90;99.90;;;;;;5105289;28;20233;-61
2024/01/02 04:19:48;;;;;;;11.10;10.70;;;9.90;99.90;;;;;;5109105;28;20206;-63
2024/01/02 04:22:15;;;;;;;11.50;11.10;;;9.90;99.90;;;;;;5119781;27;20229;-62
2024/01/02 04:24:43;;;;;;;11.03;10.63;;;9.90;99.90;;;;;;5123821;27;20205;-62
2024/01/02 04:27:10;;;;;;;11.23;10.82;;;10.00;99.90;;;;;;5121031;27;20190;-63
2024/01/02 04:29:36;;;;;;;11.50;11.10;;;10.00;99.90;;;;;;5119708;27;20220;-60
2024/01/02 04:32:03;;;;;;;11.45;11.05;;;9.90;99.90;;;;;;5115165;27;20233;-63
2024/01/02 04:34:30;;;;;;;11.63;11.23;;;9.90;99.90;;;;;;5119325;27;20204;-63
2024/01/02 04:36:57;;;;;;;11.13;10.73;;;9.90;99.90;;;;;;5117826;27;20233;-65
2024/01/02 04:39:23;;;;;;;11.57;11.17;;;9.90;99.90;;;;;;5113181;27;20239;-65
2024/01/02 04:41:52;;;;;;;11.30;10.90;;;10.00;99.90;;;;;;5118382;27;20229;-62
2024/01/02 04:44:19;;;;;;;12.10;11.70;;;9.90;99.90;;;;;;5119191;27;20618;-63
2024/01/02 04:46:46;;;;;;;10.93;10.53;;;9.90;99.90;;;;;;5112882;27;20657;-63
2024/01/02 04:49:13;;;;;;;11.00;10.60;;;9.90;99.90;;;;;;5119540;27;20236;-62
2024/01/02 04:51:40;;;;;;;11.10;10.70;;;9.90;99.90;;;;;;5119123;27;20228;-64
2024/01/02 04:54:07;;;;;;;11.77;11.37;;;9.90;99.90;;;;;;5111828;27;20198;-61
2024/01/02 04:56:34;;;;;;;11.53;11.13;;;9.90;99.90;;;;;;5115445;27;20236;-63
2024/01/02 04:59:03;;;;;;;11.10;10.70;;;9.90;99.90;;;;;;5120389;27;20194;-62
2024/01/02 05:01:29;;;;;;;11.30;10.90;;;9.90;99.90;;;;;;5122181;27;20715;-62
2024/01/02 05:03:57;;;;;;;11.30;10.90;;;10.00;99.90;;;;;;5120039;27;20615;-63
2024/01/02 05:06:24;;;;;;;11.97;11.57;;;10.00;99.90;;;;;;5122241;27;20201;-63
2024/01/02 05:08:51;;;;;;;11.13;10.73;;;10.10;99.90;;;;;;5118094;27;20301;-64
2024/01/02 05:11:17;;;;;;;11.20;10.80;;;10.10;99.90;;;;;;5121563;27;20213;-62
2024/01/02 05:13:44;;;;;;;10.63;10.33;;;10.10;99.90;;;;;;5121252;27;20209;-64
2024/01/02 05:16:12;;;;;;;10.80;10.40;;;10.10;99.90;;;;;;5120479;27;20209;-65
2024/01/02 05:18:39;;;;;;;10.93;10.53;;;10.20;99.90;;;;;;5115865;27;20217;-61
2024/01/02 05:21:07;;;;;;;10.57;10.27;;;10.20;99.90;;;;;;5133602;27;20249;-63
2024/01/02 05:23:33;;;;;;;10.47;10.17;;;10.20;99.90;;;;;;5132076;27;20937;-63
2024/01/02 05:26:00;;;;;;;11.00;10.60;;;10.20;99.90;;;;;;5119015;27;20202;-62
2024/01/02 05:28:27;;;;;;;11.30;10.90;;;10.30;99.90;;;;;;5124099;27;20206;-63
2024/01/02 05:30:54;;;;;;;11.13;10.73;;;10.30;99.90;;;;;;5119862;27;20241;-65
2024/01/02 05:33:22;;;;;;;11.07;10.67;;;10.30;99.90;;;;;;5119713;27;20213;-66
2024/01/02 05:35:49;;;;;;;11.00;10.60;;;10.30;99.90;;;;;;5119399;27;20568;-65
2024/01/02 05:38:15;;;;;;;10.70;10.40;;;10.40;99.90;;;;;;5121332;27;20210;-62
2024/01/02 05:40:42;;;;;;;11.30;10.90;;;10.40;99.90;;;;;;5122496;27;20712;-63
2024/01/02 05:43:10;;;;;;;10.60;10.20;;;10.50;99.90;;;;;;5116646;27;20201;-63
2024/01/02 05:45:36;;;;;;;10.60;10.30;;;10.40;99.90;;;;;;5119647;27;20785;-60
2024/01/02 05:48:04;;;;;;;11.13;10.73;;;10.50;99.90;;;;;;5117188;27;20247;-62
2024/01/02 05:50:32;;;;;;;10.70;10.40;;;10.50;99.90;;;;;;5122327;27;20202;-63
2024/01/02 05:52:59;;;;;;;11.50;11.10;;;10.50;99.90;;;;;;5117063;27;20663;-63
2024/01/02 05:55:25;;;;;;;11.00;10.60;;;10.50;99.90;;;;;;5121943;27;20228;-64
2024/01/02 05:57:52;;;;;;;11.30;10.90;;;10.50;99.90;;;;;;5119718;27;20594;-64
2024/01/02 06:00:19;;;;;;;11.20;10.80;;;10.50;99.90;;;;;;5121213;27;20578;-64
2024/01/02 06:02:46;;;;;;;11.17;10.77;;;10.50;99.90;;;;;;5121707;27;20602;-65
2024/01/02 06:05:13;;;;;;;11.30;10.90;;;10.40;99.90;;;;;;5116521;28;20205;-63
2024/01/02 06:07:43;;;;;;;15.40;14.70;;;10.50;99.90;;;;;;5110708;27;20205;-65
2024/01/02 06:10:10;;;;;;;11.50;11.10;;;10.50;99.90;;;;;;5111422;28;20846;-66
2024/01/02 06:12:36;;;;;;;11.43;11.03;;;10.40;99.90;;;;;;5120358;27;20232;-64
2024/01/02 06:15:03;;;;;;;11.13;10.73;;;10.40;99.90;;;;;;5118780;27;20205;-66
2024/01/02 06:17:30;;;;;;;11.70;11.30;;;10.50;99.90;;;;;;5121428;28;20221;-66
2024/01/02 06:19:57;;;;;;;11.50;11.10;;;10.40;99.90;;;;;;5119057;28;20201;-65
2024/01/02 06:22:24;;;;;;;11.37;10.97;;;10.40;99.90;;;;;;5122608;28;20326;-65
2024/01/02 06:24:52;;;;;;;11.50;11.10;;;10.40;99.90;;;;;;5121734;27;20205;-67
2024/01/02 06:27:19;;;;;;;11.43;11.03;;;10.40;99.90;;;;;;5117262;28;20198;-66
2024/01/02 06:29:45;;;;;;;12.30;11.90;;;10.40;99.90;;;;;;5116991;28;20566;-66
2024/01/02 06:32:12;;;;;;;11.40;11.00;;;10.30;99.90;;;;;;5116302;28;20237;-65
2024/01/02 06:34:39;;;;;;;11.13;10.73;;;10.40;99.90;;;;;;5121019;27;20595;-66
2024/01/02 06:37:05;;;;;;;11.03;10.63;;;10.40;99.90;;;;;;5117270;27;20217;-66
2024/01/02 06:39:32;;;;;;;11.40;11.00;;;10.40;99.90;;;;;;5117749;27;20216;-67
2024/01/02 06:42:00;;;;;;;11.53;11.13;;;10.40;99.90;;;;;;5115220;27;20229;-66
2024/01/02 06:44:27;;;;;;;11.60;11.20;;;10.40;99.90;;;;;;5129791;27;20216;-66
2024/01/02 06:46:53;;;;;;;23.50;22.60;;;10.40;99.90;;;;;;5138804;27;20288;-64
2024/01/02 06:49:20;;;;;;;11.60;11.20;;;10.40;99.90;;;;;;5132534;27;20216;-67
2024/01/02 06:51:47;;;;;;;10.90;10.50;;;10.40;99.90;;;;;;5137166;27;20478;-66
2024/01/02 06:54:13;;;;;;;11.90;11.50;;;10.40;99.90;;;;;;5138581;27;20201;-66
2024/01/02 06:56:40;;;;;;;11.40;11.00;;;10.40;99.90;;;;;;5134077;27;20220;-67
2024/01/02 06:59:08;;;;;;;13.07;12.67;;;10.40;99.90;;;;;;5135997;27;20194;-62
2024/01/02 07:01:36;;;;;;;11.10;10.70;;;10.40;99.90;;;;;;5135547;27;20700;-65
2024/01/02 07:04:03;;;;;;;11.00;10.60;;;10.40;99.90;;;;;;5126005;27;20209;-67
2024/01/02 07:06:31;;;;;;;11.50;11.10;;;10.40;99.90;;;;;;5131530;27;20198;-67
2024/01/02 07:08:57;;;;;;;11.20;10.80;;;10.50;99.90;;;;;;5127999;27;20212;-66
2024/01/02 07:11:24;;;;;;;10.30;10.00;;;10.50;99.90;;;;;;5118868;27;20233;-66
2024/01/02 07:13:51;;;;;;;10.90;10.50;;;10.50;99.90;;;;;;5125468;27;20640;-65
2024/01/02 07:16:19;;;;;;;11.40;11.00;;;10.50;99.90;;;;;;5123442;27;20202;-65
2024/01/02 07:18:46;;;;;;;12.43;12.03;;;10.60;99.90;;;;;;5125085;27;20306;-67
2024/01/02 07:21:12;;;;;;;10.93;10.53;;;10.60;99.90;;;;;;5124096;27;20232;-67
2024/01/02 07:23:39;;;;;;;10.23;9.93;;;10.50;99.90;;;;;;5120494;27;20213;-66
2024/01/02 07:26:06;;;;;;;11.63;11.23;;;10.60;99.90;;;;;;5122717;27;20638;-65
2024/01/02 07:28:32;;;;;;;11.07;10.67;;;10.50;99.90;;;;;;5133341;27;20193;-65
2024/01/02 07:30:59;;;;;;;11.27;10.87;;;10.50;99.90;;;;;;5117806;27;20426;-67
2024/01/02 07:33:27;;;;;;;11.00;10.60;;;10.50;99.90;;;;;;5123380;27;20553;-67
2024/01/02 07:35:54;;;;;;;11.27;10.87;;;10.60;99.90;;;;;;5115173;27;20209;-65
2024/01/02 07:38:21;;;;;;;11.40;10.90;;;10.70;99.90;;;;;;5118364;27;20306;-66
2024/01/02 07:40:48;;;;;;;11.30;10.90;;;10.60;99.90;;;;;;5117297;27;20217;-66
2024/01/02 07:43:15;;;;;;;11.27;10.87;;;10.70;99.90;;;;;;5116280;27;20574;-67
2024/01/02 07:45:42;;;;;;;11.50;11.10;;;10.60;99.90;;;;;;5116000;27;20202;-66
2024/01/02 07:48:08;;;;;;;11.57;11.17;;;10.60;99.90;;;;;;5120915;27;20201;-65
2024/01/02 07:50:36;;;;;;;10.57;10.27;;;10.60;99.90;;;;;;5120757;27;20213;-65
2024/01/02 07:53:03;;;;;;;11.97;11.57;;;10.60;99.90;;;;;;5126501;27;20199;-66
2024/01/02 07:55:30;;;;;;;11.40;11.00;;;10.60;99.90;;;;;;5117385;27;20217;-66
2024/01/02 07:57:57;;;;;;;11.10;10.70;;;10.60;99.90;;;;;;5111989;27;20731;-66
2024/01/02 08:00:24;;;;;;;11.23;10.83;;;10.60;99.90;;;;;;5114330;27;20777;-63
2024/01/02 08:02:51;;;;;;;11.33;10.93;;;10.70;99.90;;;;;;5116481;27;20233;-67
2024/01/02 08:05:19;;;;;;;11.50;11.10;;;10.60;99.90;;;;;;5112671;27;20737;-66
2024/01/02 08:07:47;;;;;;;10.90;10.50;;;10.70;99.90;;;;;;5117529;27;20226;-65
2024/01/02 08:10:14;;;;;;;11.73;11.33;;;10.60;99.90;;;;;;5117122;27;20202;-65
2024/01/02 08:12:40;;;;;;;12.43;12.03;;;10.60;99.90;;;;;;5116850;27;20228;-65
2024/01/02 08:15:08;;;;;;;11.47;11.07;;;10.70;99.90;;;;;;5106080;27;20423;-65
2024/01/02 08:17:35;;;;;;;11.40;11.00;;;10.60;99.90;;;;;;5112352;27;20229;-65
2024/01/02 08:20:03;;;;;;;12.10;11.70;;;10.60;99.90;;;;;;5109965;27;20206;-65
2024/01/02 08:22:29;;;;;;;12.77;12.37;;;10.60;99.90;;;;;;5116747;27;20225;-67
2024/01/02 08:24:58;;;;;;;11.30;10.90;;;10.60;99.90;;;;;;5113255;27;20221;-67
2024/01/02 08:27:25;;;;;;;13.93;13.43;;;10.60;99.90;;;;;;5117128;27;20198;-65
2024/01/02 08:29:52;;;;;;;13.80;13.30;;;10.60;99.90;;;;;;5112542;27;20236;-65
2024/01/02 08:32:20;;;;;;;11.60;11.20;;;10.50;99.90;;;;;;5111271;27;20310;-67
2024/01/02 08:34:47;;;;;;;12.10;11.70;;;10.50;99.90;;;;;;5109766;27;20209;-64
2024/01/02 08:37:13;;;;;;;11.60;11.20;;;10.50;99.90;;;;;;5105888;27;20245;-66
2024/01/02 08:39:40;;;;;;;11.23;10.83;;;10.50;99.90;;;;;;5112998;27;20249;-66
2024/01/02 08:42:08;;;;;;;11.03;10.63;;;10.50;99.90;;;;;;5115129;27;20225;-64
2024/01/02 08:44:35;;;;;;;10.57;10.27;;;10.50;99.90;;;;;;5120242;27;20293;-65
2024/01/02 08:47:01;;;;;;;10.77;10.40;;;10.50;99.90;;;;;;5137333;27;20212;-65
2024/01/02 08:49:28;;;;;;;11.47;11.07;;;10.60;99.90;;;;;;5114106;27;20222;-62
2024/01/02 08:51:55;;;;;;;11.57;11.17;;;10.60;99.90;;;;;;5111219;27;20221;-66
2024/01/02 08:54:22;;;;;;;12.43;12.03;;;10.60;99.90;;;;;;5110851;27;20206;-64
2024/01/02 08:56:49;;;;;;;13.10;12.70;;;10.60;99.90;;;;;;5107956;27;20198;-65
2024/01/02 08:59:17;;;;;;;11.03;10.63;;;10.60;99.90;;;;;;5106459;27;20201;-65
2024/01/02 09:01:50;;;;;;;11.13;10.73;;;10.60;99.90;;;;;;5110393;27;20278;-64
2024/01/02 09:04:17;;;;;;;12.13;11.73;;;10.60;99.90;;;;;;5109166;27;20201;-64
2024/01/02 09:06:43;;;;;;;11.23;10.83;;;10.70;99.90;;;;;;5113919;27;20548;-65
2024/01/02 09:09:10;;;;;;;11.17;10.77;;;10.70;99.90;;;;;;5114045;27;20206;-65
2024/01/02 09:11:37;;;;;;;11.60;11.20;;;10.70;99.90;;;;;;5111734;27;20714;-65
2024/01/02 09:14:04;;;;;;;11.77;11.37;;;10.70;99.90;;;;;;5112173;27;20202;-67
2024/01/02 09:16:33;;;;;;;11.17;10.77;;;10.70;99.90;;;;;;5113643;27;20193;-65
2024/01/02 09:19:00;;;;;;;11.63;11.23;;;10.70;99.90;;;;;;5109924;27;20243;-62
2024/01/02 09:21:26;;;;;;;11.33;10.93;;;10.70;99.90;;;;;;5112091;27;20225;-61
2024/01/02 09:23:53;;;;;;;11.80;11.40;;;10.80;99.90;;;;;;5110506;27;20206;-62
2024/01/02 09:26:23;;;;;;;11.47;11.07;;;10.80;99.90;;;;;;5113906;27;20198;-63
2024/01/02 09:28:50;;;;;;;12.03;11.63;;;10.90;99.90;;;;;;5115982;27;20213;-62
2024/01/02 09:31:18;;;;;;;11.83;11.43;;;10.90;99.90;;;;;;5112643;27;20222;-62
2024/01/02 09:33:47;;;;;;;12.50;12.10;;;10.90;99.90;;;;;;5112446;27;20668;-64
2024/01/02 09:36:15;;;;;;;12.07;11.67;;;10.90;99.90;;;;;;5114226;27;20218;-65
2024/01/02 09:38:42;;;;;;;12.90;12.50;;;10.90;99.90;;;;;;5112838;27;20266;-65
2024/01/02 09:41:46;;;;;;;12.77;12.37;;;10.90;99.90;;;;;;5108854;28;20252;-63
2024/01/02 09:44:22;;;;;;;11.77;11.37;;;10.90;99.90;;;;;;5109658;28;20197;-62
2024/01/02 09:46:59;;;;;;;11.60;11.20;;;11.00;99.90;;;;;;5113429;27;20627;-64
2024/01/02 09:49:36;;;;;;;12.13;11.73;;;11.00;99.90;;;;;;5113746;27;20190;-62
2024/01/02 09:52:21;;;;;;;12.60;12.20;;;11.00;99.90;;;;;;5112678;27;20716;-63
2024/01/02 09:54:56;;;;;;;12.47;12.07;;;11.00;99.90;;;;;;5112266;27;20209;-63
2024/01/02 09:57:29;;;;;;;13.47;13.03;;;11.10;99.90;;;;;;5109781;28;20205;-64
2024/01/02 10:00:05;;;;;;;14.07;13.60;;;11.10;99.90;;;;;;5117875;27;20209;-63
2024/01/02 10:02:57;;;;;;;10.93;10.53;;;11.10;99.90;;;;;;5108802;28;20841;-63
2024/01/02 10:05:38;;;;;;;12.00;11.60;;;11.10;99.90;;;;;;5103000;27;20209;-62
2024/01/02 10:08:23;;;;;;;13.03;12.63;;;11.10;99.90;;;;;;5119532;27;20204;-62
2024/01/02 10:11:01;;;;;;;12.53;12.13;;;11.20;99.90;;;;;;5121965;28;20221;-63
2024/01/02 10:13:34;;;;;;;11.17;10.77;;;11.20;99.90;;;;;;5118482;28;20213;-63
2024/01/02 10:16:08;;;;;;;13.63;13.13;;;11.20;99.90;;;;;;5123636;28;20209;-65
2024/01/02 10:18:49;;;;;;;14.30;13.80;;;11.30;99.90;;;;;;5128598;28;20234;-64
2024/01/02 10:21:28;;;;;;;13.30;12.90;;;11.30;99.90;;;;;;5117558;28;20229;-64
2024/01/02 10:24:03;;;;;;;13.87;13.40;;;11.40;99.90;;;;;;5116387;27;20200;-63
2024/01/02 10:26:37;;;;;;;13.33;12.93;;;11.40;99.90;;;;;;5118154;27;20214;-62
2024/01/02 10:29:05;;;;;;;13.80;13.30;;;11.30;99.90;;;;;;5125282;27;20284;-63
2024/01/02 10:31:39;;;;;;;14.03;13.53;;;11.40;99.90;;;;;;5122107;28;20312;-63
2024/01/02 10:34:14;;;;;;;13.93;13.43;;;11.40;99.90;;;;;;5119465;28;20224;-62
2024/01/02 10:36:50;;;;;;;13.50;13.10;;;11.40;99.90;;;;;;5124720;28;20219;-64
2024/01/02 10:39:26;;;;;;;14.63;14.13;;;11.40;99.90;;;;;;5126028;28;20205;-63
2024/01/02 10:41:58;;;;;;;13.53;13.10;;;11.40;99.90;;;;;;5120282;28;20316;-62
2024/01/02 10:44:38;;;;;;;14.77;14.27;;;11.40;99.90;;;;;;5114337;28;20204;-63
2024/01/02 10:47:13;;;;;;;13.40;12.97;;;11.50;99.90;;;;;;5114924;27;20717;-63
2024/01/02 10:49:41;;;;;;;13.60;13.10;;;11.50;99.90;;;;;;5107416;28;20198;-62
2024/01/02 10:52:18;;;;;;;13.10;12.70;;;11.50;99.90;;;;;;5118847;27;20282;-62
2024/01/02 10:54:53;;;;;;;13.40;13.00;;;11.60;99.90;;;;;;5116337;27;20694;-63
2024/01/02 10:57:29;;;;;;;13.83;13.33;;;11.50;99.90;;;;;;5119385;27;20283;-62
2024/01/02 11:00:04;;;;;;;14.15;13.65;;;11.60;99.90;;;;;;5118639;27;20281;-63
2024/01/02 11:02:43;;;;;;;13.10;12.70;;;11.60;99.90;;;;;;5119703;27;20246;-63
2024/01/02 11:05:22;;;;;;;12.73;12.33;;;11.60;99.90;;;;;;5117457;27;20202;-63
2024/01/02 11:07:57;;;;;;;13.50;13.03;;;11.60;99.90;;;;;;5113653;28;20617;-63
2024/01/02 11:10:25;;;;;;;13.17;12.73;;;11.60;99.90;;;;;;5114880;28;20284;-63
2024/01/02 11:12:58;;;;;;;13.30;12.90;;;11.60;99.90;;;;;;5116359;27;20301;-63
2024/01/02 11:15:28;;;;;;;13.47;13.07;;;11.60;99.90;;;;;;5114319;27;20190;-63
2024/01/02 11:17:58;;;;;;;13.67;13.20;;;11.60;99.90;;;;;;5111224;27;20224;-64
2024/01/02 11:20:31;;;;;;;13.03;12.63;;;11.60;99.90;;;;;;5113031;28;20202;-62
2024/01/02 11:23:02;;;;;;;13.33;12.87;;;11.70;99.90;;;;;;5122720;27;20208;-63
2024/01/02 11:25:34;;;;;;;13.17;12.73;;;11.70;99.90;;;;;;5117535;27;20204;-62
2024/01/02 11:28:03;;;;;;;12.60;12.20;;;11.70;99.90;;;;;;5127448;27;20648;-64
2024/01/02 11:30:35;;;;;;;13.37;12.97;;;11.80;99.90;;;;;;5118159;27;20198;-63
2024/01/02 11:33:08;;;;;;;12.47;12.07;;;11.70;99.90;;;;;;5108334;28;20259;-63
2024/01/02 11:35:41;;;;;;;12.97;12.53;;;11.80;99.90;;;;;;5116154;27;20587;-64
2024/01/02 11:38:11;;;;;;;12.80;12.40;;;11.80;99.90;;;;;;5108490;28;20221;-63
2024/01/02 11:40:48;;;;;;;12.90;12.50;;;11.80;99.90;;;;;;5116019;27;20259;-63
2024/01/02 11:43:23;;;;;;;12.73;12.33;;;11.80;99.90;;;;;;5117720;27;20576;-63
2024/01/02 11:45:56;;;;;;;13.43;13.00;;;11.80;99.90;;;;;;5114511;27;20293;-63
2024/01/02 11:48:36;;;;;;;12.27;11.87;;;11.80;99.90;;;;;;5112267;27;20197;-62
2024/01/02 11:51:11;;;;;;;12.57;12.17;;;11.80;99.90;;;;;;5109082;27;20229;-63
2024/01/02 11:53:55;;;;;;;12.30;11.90;;;11.80;99.90;;;;;;5114421;27;20209;-63
2024/01/02 11:56:24;;;;;;;12.67;12.27;;;11.80;99.90;;;;;;5114027;27;20210;-63
2024/01/02 11:58:57;;;;;;;12.77;12.37;;;11.90;99.90;;;;;;5116774;27;20225;-63
2024/01/02 12:01:29;;;;;;;12.20;11.80;;;11.90;99.90;;;;;;5112360;27;20633;-63
2024/01/02 12:04:10;;;;;;;12.27;11.87;;;11.90;99.90;;;;;;5118149;27;20218;-63
2024/01/02 12:06:45;;;;;;;12.53;12.13;;;11.90;99.90;;;;;;5110572;28;20202;-63
2024/01/02 12:09:17;;;;;;;12.70;12.30;;;11.90;99.90;;;;;;5123834;27;20510;-64
2024/01/02 12:11:48;;;;;;;12.13;11.73;;;11.90;99.90;;;;;;5116368;27;20221;-64
2024/01/02 12:14:34;;;;;;;12.67;12.27;;;11.90;99.90;;;;;;5110323;28;20288;-63
2024/01/02 12:17:04;;;;;;;13.00;12.60;;;12.00;99.90;;;;;;5115713;27;20209;-63
2024/01/02 12:19:32;;;;;;;12.47;12.07;;;12.00;99.90;;;;;;5116454;27;20226;-62
2024/01/02 12:21:59;;;;;;;12.63;12.23;;;12.00;99.90;;;;;;5113622;27;20226;-62
2024/01/02 12:24:29;;;;;;;12.50;12.10;;;11.90;99.90;;;;;;5110919;28;20653;-63
2024/01/02 12:26:57;;;;;;;12.17;11.77;;;11.90;99.90;;;;;;5112130;27;20293;-63
2024/01/02 12:29:38;;;;;;;11.97;11.57;;;12.00;99.90;;;;;;5115168;27;20224;-63
2024/01/02 12:32:14;;;;;;;11.83;11.43;;;11.90;99.90;;;;;;5115981;27;20706;-63
2024/01/02 12:34:48;;;;;;;12.13;11.73;;;12.00;99.90;;;;;;5112062;27;20697;-63
2024/01/02 12:37:21;;;;;;;12.07;11.67;;;11.90;99.90;;;;;;5109314;28;20662;-63